Alex Pulisic

Recruteur - DC United
28 Nov 2027
Dimanche
Processus

Personnalité

Adaptabilité (14) Ambition (18) Controverse (11) Loyauté (11) Pression (9) Professionnalisme (17) Sportivité (8) Tempérament (4)

Profil

Style d'entraînement Démocratique
Diplôme National B
Détermination 12
Gestion des joueurs 12
Motivation 8
Discipline 5
Satisfaction professionnelle
99%
Fatigue
0%
Rôle Recruteur
Salaire 21.2K p/s
Contrat 14.03.2028

Performance

Comportement Bon
Efficacité de l'entraînement
34%
Développement des joueurs
20%
Prévention des blessures
20%
Mise en place tactique
35%

Événements récents

A participé à une réunion de recrutement maintenant
A recommandé une cible de transfert maintenant
A recommandé une cible de transfert maintenant
A recommandé une cible de transfert maintenant
A recommandé une cible de transfert 7j
A recommandé une cible de transfert 7j
A participé à une réunion de recrutement 7j
A recommandé une cible de transfert 7j

Suivi en cours

146
Joueur Club Statut Capacité Confiance Observé Dernière observation Dernier vote
Josh Nichols Oldham Athletic Actif 119 / 127 40% 2 11.11.2027 -
Caleb Yirenkyi Coventry City Actif 140 / 150 40% 1 11.11.2027 -
Jaydee Canvot Crystal Palace Actif 134 / 141 40% 1 11.11.2027 -
Thulani Manyama SuperSport United Actif 116 / 117 40% 2 10.11.2027 -
Giovanni Leoni Lincoln City Actif 145 / 149 40% 1 10.11.2027 -
David Damboama El-Kanemi Warriors Actif 82 / 94 40% 1 10.11.2027 -
Trey Nyoni Rotherham United Actif 130 / 143 40% 2 06.11.2027 -
Josh Acheampong Everton Actif 140 / 148 40% 1 06.11.2027 -
Martín Jiménez Audax Italiano Actif 101 / 109 40% 1 04.11.2027 -
Godwin Oham Warri Wolves Actif 93 / 94 40% 1 04.11.2027 -
Mohammed Habib Sarwari Kariobangi Sharks Actif 70 / 79 40% 1 02.11.2027 -
Óscar Hinojosa Metropolitanos Actif 80 / 89 40% 1 02.11.2027 -
Daniel Idoko Ikorodu City Actif 96 / 94 40% 1 02.11.2027 -
Riquelme Thompson-Jones Accrington Stanley Actif 102 / 119 40% 1 01.11.2027 -
Lucas Bergvall Tottenham Actif 155 / 151 40% 1 01.11.2027 -
Onyeuche Ujunwa Ikorodu City Actif 83 / 94 40% 1 01.11.2027 -
Francisco Salerno Defensores Unidos Actif 114 / 110 40% 1 21.10.2027 -
Luciano Jachfe Nueva Chicago Actif 115 / 121 40% 1 21.10.2027 -
Ameh Godwin Nasarawa United Actif 95 / 98 40% 1 21.10.2027 -
Chisom Chiaha Barau Actif 85 / 90 40% 2 19.10.2027 -
Roberto Ramírez Godoy Cruz Actif 121 / 114 40% 1 19.10.2027 -
Ani Ozoemena Rivers United Actif 107 / 104 40% 1 19.10.2027 -
Emilio Di Fulvio Colegiales Actif 120 / 116 40% 2 13.10.2027 -
Akpan Nsikak-Abong Kun Khalifat Actif 99 / 95 40% 1 13.10.2027 -
Esteban Glellel Quilmes Actif 115 / 120 40% 1 13.10.2027 -
Mustapha Lawal Shooting Stars Actif 98 / 97 40% 1 11.10.2027 -
Facundo Vila Estudiantes Actif 108 / 109 40% 1 11.10.2027 -
Khadime N'Diaye Kenya Police Actif 93 / 85 40% 1 11.10.2027 -
Brian Olivera Racing Actif 107 / 111 40% 1 10.10.2027 -
Abuchi Okeke Kano Pillars Actif 93 / 98 40% 1 10.10.2027 -
Joaquín Silva Plaza Colonia Actif 110 / 109 40% 1 10.10.2027 -
Nahuel Pezzini Arsenal Actif 113 / 114 40% 1 09.10.2027 -
Bamidele Adeniyi Bendel Insurance Actif 96 / 88 40% 1 09.10.2027 -
Emiliano González Almagro Actif 120 / 121 40% 1 06.10.2027 -
Ikenna Benjamin Bayelsa United Actif 97 / 86 40% 1 06.10.2027 -
Nelson Insfrán Gimnasia La Plata Actif 121 / 119 40% 1 04.10.2027 -
CJ dos Santos San Diego Football Club Actif 116 / 119 40% 1 04.10.2027 -
Ali Ishaku Abia Warriors Actif 108 / 97 40% 1 04.10.2027 -
Ayden Heaven Portsmouth Actif 150 / 156 40% 1 06.09.2027 -
Matias Siltanen Malmo FF Actif 132 / 132 40% 1 06.09.2027 -
Andy Rojas New York Red Bulls Rapport prêt 95 / 109 76% 1 02.08.2027 -
Ivan Giraldo Valencia Actif 118 / 124 40% 3 26.07.2027 -
Josh King Newcastle United Actif 143 / 146 40% 1 26.07.2027 -
Jan Bürger Northampton Town Actif 108 / 117 40% 1 26.07.2027 -
Nicolás Fernández Mercau FC Copenhagen Actif 134 / 134 67% 1 08.07.2027 Approuver
Facundo Torres Shakhtar Négociation 134 / 134 67% 1 08.07.2027 -
Pedro de la Vega Columbus Crew Actif 133 / 134 66% 1 08.07.2027 Approuver
Patrick Berg Lecce Actif 141 / 141 62% 1 08.07.2027 Approuver
Bitello SC Freiburg Actif 135 / 135 68% 1 08.07.2027 Approuver
Konstantin Tyukavin Osasuna Négociation 132 / 133 66% 1 08.07.2027 -
Anton Stach Leeds United Actif 140 / 146 40% 2 11.02.2027 -
Dara O'Shea Ipswich Town Actif 145 / 139 40% 1 11.02.2027 -
Joel Pereira Reading Actif 111 / 111 40% 1 10.02.2027 -
Xaver Schlager Nottingham Forest Actif 151 / 149 40% 1 09.02.2027 -
Nordi Mukiele Sunderland Actif 149 / 148 40% 1 09.02.2027 -
Anel Ahmedhodžić Burnley Actif 145 / 130 40% 1 09.02.2027 -
Cameron Archer Southampton Actif 128 / 127 40% 1 09.02.2027 -
Yousef Salech Cardiff City Actif 137 / 129 40% 1 09.02.2027 -
Ao Tanaka Leeds United Actif 136 / 134 40% 1 07.02.2027 -
Igor Burnley Actif 150 / 140 40% 1 07.02.2027 -
Rubens Dinamo Moscow Actif 137 / 123 40% 2 06.02.2027 -
Luke Shaw Lokomotiv Moscow Actif 153 / 151 40% 5 05.02.2027 -
Raoul Bellanova Atalanta Actif 152 / 149 40% 1 05.02.2027 -
Matevž Vidovšek Olimpija Ljubljana Actif 127 / 115 40% 1 04.02.2027 -
Tomás Ribeiro Cultural Leonesa Actif 111 / 122 40% 1 02.02.2027 -
Gianmarco Vannucchi Benevento Actif 121 / 110 40% 1 31.01.2027 -
Angus Gunn San Jose Earthquakes Actif 124 / 121 40% 1 31.01.2027 -
Maduka Okoye Udinese Actif 140 / 142 40% 1 30.01.2027 -
Thierry Rendall Correia Venezia Actif 134 / 142 40% 1 29.01.2027 -
Simone Scuffet Pisa Actif 135 / 128 40% 1 27.01.2027 -
Temirkan Sundukov Dinamo Makhachkala Actif 104 / 107 40% 1 26.01.2027 -
Will Hughes Bloemfontein Celtic Actif 142 / 126 40% 4 25.01.2027 -
Alexandr Maximenko Spartak Moscow Actif 117 / 132 40% 1 24.01.2027 -
Jonathan Klinsmann Cesena Actif 131 / 129 40% 1 22.01.2027 -
Stanley Nwabali Ismaily Actif 117 / 110 40% 1 22.01.2027 -
Evgeny Staver Rubin Actif 111 / 110 40% 1 21.01.2027 -
Vladyslav Dubinchak Dynamo Kyiv Actif 120 / 120 40% 2 20.01.2027 -
Ivan Pakholiuk Kolos Actif 119 / 112 40% 1 19.01.2027 -
Alessandro Buongiorno Cagliari Actif 154 / 162 40% 1 16.01.2027 -
Trevoh Chalobah Como Actif 154 / 159 40% 1 16.01.2027 -
Drake Callender Minnesota United FC Actif 119 / 124 40% 1 16.01.2027 -
Arthur Beroe Actif 113 / 113 40% 1 16.01.2027 -
João Félix Dinamo Moscow Actif 147 / 155 40% 5 14.01.2027 -
Patrick Cutrone Monza Actif 130 / 131 40% 1 14.01.2027 -
César Montes Lokomotiv Moscow Actif 125 / 129 40% 1 13.01.2027 -
Jordan Lotomba Bloemfontein Celtic Actif 134 / 117 40% 3 12.01.2027 -
Ferland Mendy Real Madrid Actif 139 / 139 40% 1 12.01.2027 -
Álex Centelles Levski Actif 119 / 128 40% 1 10.01.2027 -
Jesus Ferreira Seattle Sounders Actif 130 / 131 40% 2 07.01.2027 -
Stav Toriel Hapoel Tel Aviv Actif 120 / 124 40% 4 07.01.2027 -
Myrto Uzuni Austin FC Actif 131 / 134 40% 4 07.01.2027 -
Gedson Fernandes Spartak Moscow Actif 136 / 134 40% 1 07.01.2027 -
Wessam Abou Ali Columbus Crew Actif 132 / 127 40% 4 04.01.2027 -
Timo Werner San Jose Earthquakes Actif 132 / 125 40% 2 04.01.2027 -
Thalente Mbatha Orlando Pirates Actif 107 / 117 40% 3 04.01.2027 -
Teboho Mokoena Mamelodi Sundowns Actif 123 / 130 40% 2 01.01.2027 -
Fawaaz Basadien Mamelodi Sundowns Actif 109 / 122 40% 4 31.12.2026 -
Khuliso Mudau Mamelodi Sundowns Actif 121 / 134 40% 2 30.12.2026 -
Jean-Philippe Gbamin CSKA Sofia Actif 129 / 131 40% 1 30.12.2026 -
Harvey Vale Queens Park Rangers Actif 122 / 118 40% 2 29.12.2026 -
Bathusi Aubaas Mamelodi Sundowns Actif 116 / 114 40% 2 27.12.2026 -
Germán Berterame Inter Miami CF Actif 139 / 132 40% 4 26.12.2026 -
Marko Grujić Levski Actif 119 / 128 40% 1 26.12.2026 -
Jay Stansfield Birmingham Actif 134 / 119 40% 1 24.12.2026 -
Younes Ebnoutalib Eintracht Frankfurt Actif 125 / 133 40% 1 23.12.2026 -
Morgan Guilavogui Real Salt Lake Actif 127 / 127 40% 1 21.12.2026 Plus d'infos
Femi Seriki Sheffield United Actif 135 / 125 40% 3 20.12.2026 -
Martín Ojeda Orlando City Actif 140 / 132 40% 2 20.12.2026 -
Talles Magno New York City Actif 135 / 129 40% 4 19.12.2026 -
Lebogang Manyama SuperSport United Actif 116 / 108 40% 1 16.12.2026 -
Manu Morlanes Mallorca Actif 136 / 137 40% 1 14.12.2026 -
Iliya Gruev Leeds United Actif 139 / 134 40% 2 09.12.2026 -
Pep Biel Charlotte Football Club Actif 125 / 123 40% 2 08.12.2026 -
Derry Scherhant SC Freiburg Actif 131 / 133 40% 1 08.12.2026 -
Alexey Miranchuk Atlanta United FC Actif 137 / 143 40% 4 22.11.2026 -
Dániel Gazdag New England Revolution Actif 123 / 124 40% 1 14.11.2026 -
Mathys Tel Tottenham Actif 140 / 154 40% 2 07.11.2026 -
João Klauss LA Galaxy Actif 130 / 128 40% 2 06.11.2026 -
Kévin Denkey FC Cincinnati Actif 123 / 130 40% 3 06.11.2026 -
Daniel Karlsbakk Sarpsborg 08 Actif 130 / 121 40% 2 06.11.2026 -
Veljko Birmančević Ferencvaros Actif 134 / 142 40% 4 03.11.2026 -
Luka Jović CFR Cluj Actif 139 / 132 40% 1 03.11.2026 -
Petar Musa FC Dallas Actif 143 / 133 40% 2 29.10.2026 -
Josh Sargent Toronto FC Actif 128 / 126 40% 1 27.10.2026 -
Mateusz Bogusz Houston Dynamo Actif 130 / 122 40% 2 26.10.2026 -
Igor Jesus Nottingham Forest Actif 148 / 151 40% 2 23.10.2026 -
Sam Surridge Nashville SC Actif 127 / 133 40% 1 20.10.2026 -
Bongokuhle Hlongwane Minnesota United FC Actif 121 / 119 40% 2 15.10.2026 -
Maxim De Cuyper Brighton Actif 140 / 135 40% 1 05.10.2026 -
Sergio Reguilón Inter Miami CF Actif 133 / 137 40% 1 05.10.2026 -
Kelvin Yeboah Minnesota United FC Actif 120 / 123 40% 1 01.10.2026 -
Yorbe Vertessen Red Bull Salzburg Actif 137 / 134 40% 1 29.09.2026 -
Kwadwo Duah Ludogorets Actif 117 / 131 40% 1 29.09.2026 -
Jordan Morris Seattle Sounders Actif 120 / 123 40% 1 27.09.2026 -
Mads Roerslev Southampton Actif 128 / 121 40% 1 20.09.2026 -
Oleksii Hutsuliak Polissia Actif 130 / 126 40% 2 19.09.2026 -
Manfred Ugalde Spartak Moscow Actif 132 / 133 40% 1 19.09.2026 -
Mirlind Daku Spartak Moscow Actif 133 / 134 40% 1 19.09.2026 -
Terem Moffi Hamburger SV Actif 127 / 118 40% 1 18.09.2026 -
Maurits Kjærgaard Red Bull Salzburg Actif 137 / 123 40% 1 16.09.2026 -
Facundo Mura Inter Miami CF Actif 131 / 128 40% 2 15.09.2026 -
Jimer Fory Portland Timbers Actif 109 / 122 40% 1 15.09.2026 -
Alexandr Sobolev Zenit Actif 118 / 129 40% 1 14.09.2026 -
Yves Bissouma Tottenham Actif 130 / 143 40% 1 10.09.2026 -
Frank Onyeka Coventry City Actif 138 / 137 40% 1 01.08.2026 -
Phil Neumann Birmingham Actif 132 / 129 40% 1 01.08.2026 -